createdAt,value
2022-11-25T00:01:29.795Z,97220.19
2022-11-25T00:03:59.526Z,97232.66
2022-11-25T00:06:30.556Z,97229.31
2022-11-25T00:09:00.449Z,97232.53
2022-11-25T00:11:29.358Z,97238.63
2022-11-25T00:13:58.773Z,97244.72
2022-11-25T00:16:27.605Z,97247.47
2022-11-25T00:18:57.515Z,97242.47
2022-11-25T00:21:27.237Z,97238.88
2022-11-25T00:23:58.518Z,97241.50
2022-11-25T00:26:28.592Z,97245.09
2022-11-25T00:28:59.730Z,97249.38
2022-11-25T00:31:29.662Z,97250.22
2022-11-25T00:33:58.919Z,97252.97
2022-11-25T00:36:28.682Z,97253.94
2022-11-25T00:39:00.113Z,97267.81
2022-11-25T00:41:46.987Z,97257.53
2022-11-25T00:44:35.075Z,97257.41
2022-11-25T00:47:03.913Z,97264.72
2022-11-25T00:49:32.468Z,97260.16
2022-11-25T00:52:00.967Z,97260.16
2022-11-25T00:54:30.826Z,97255.84
2022-11-25T00:56:59.755Z,97259.44
2022-11-25T00:59:28.717Z,97265.56
2022-11-25T01:01:57.235Z,97256.09
2022-11-25T01:04:25.587Z,97267.34
2022-11-25T01:06:56.846Z,97262.09
2022-11-25T01:09:25.555Z,97253.56
2022-11-25T01:11:55.318Z,97255.16
2022-11-25T01:14:24.459Z,97257.78
2022-11-25T01:16:53.129Z,97255.28
2022-11-25T01:19:22.078Z,97264.00
2022-11-25T01:21:50.492Z,97256.09
2022-11-25T01:24:19.133Z,97259.66
2022-11-25T01:26:47.630Z,97259.66
2022-11-25T01:29:18.719Z,97264.94
2022-11-25T01:31:48.249Z,97265.88
2022-11-25T01:34:19.202Z,97258.13
2022-11-25T01:36:47.928Z,97255.59
2022-11-25T01:39:18.932Z,97249.63
2022-11-25T01:41:48.207Z,97247.13
2022-11-25T01:44:19.582Z,97252.97
2022-11-25T01:46:55.665Z,97259.19
2022-11-25T01:49:29.784Z,97254.88
2022-11-25T01:52:01.913Z,97255.72
2022-11-25T01:54:34.678Z,97246.28
2022-11-25T01:57:06.964Z,97252.25
2022-11-25T01:59:41.023Z,97243.78
2022-11-25T02:02:10.003Z,97244.63
2022-11-25T02:04:39.587Z,97249.88
2022-11-25T02:07:10.992Z,97255.00
2022-11-25T02:09:40.663Z,97252.38
2022-11-25T02:12:09.253Z,97252.63
2022-11-25T02:14:39.364Z,97246.41
2022-11-25T02:17:07.958Z,97248.19
2022-11-25T02:19:46.642Z,97247.38
2022-11-25T02:22:21.143Z,97250.13
2022-11-25T02:24:52.833Z,97255.38
2022-11-25T02:27:22.610Z,97255.25
2022-11-25T02:29:51.521Z,97247.50
2022-11-25T02:32:23.388Z,97240.81
2022-11-25T02:34:51.711Z,97247.63
2022-11-25T02:37:22.809Z,97245.09
2022-11-25T02:39:52.266Z,97241.88
2022-11-25T02:42:22.856Z,97245.09
2022-11-25T02:44:51.251Z,97247.84
2022-11-25T02:47:19.691Z,97248.69
2022-11-25T02:49:48.093Z,97252.16
2022-11-25T02:52:16.550Z,97247.84
2022-11-25T02:54:44.961Z,97246.91
2022-11-25T02:57:13.438Z,97242.47
2022-11-25T02:59:43.264Z,97242.59
2022-11-25T03:02:11.774Z,97245.34
2022-11-25T03:04:40.228Z,97246.31
2022-11-25T03:07:08.736Z,97239.25
2022-11-25T03:09:37.142Z,97229.56
2022-11-25T03:12:20.928Z,97240.91
2022-11-25T03:14:57.308Z,97234.81
2022-11-25T03:17:25.733Z,97231.34
2022-11-25T03:19:55.949Z,97241.03
2022-11-25T03:22:24.718Z,97245.34
2022-11-25T03:24:53.109Z,97247.97
2022-11-25T03:27:21.978Z,97250.84
2022-11-25T03:29:50.746Z,97255.88
2022-11-25T03:32:20.998Z,97252.53
2022-11-25T03:34:49.377Z,97260.28
2022-11-25T03:37:18.492Z,97255.16
2022-11-25T03:39:47.008Z,97258.63
2022-11-25T03:42:15.586Z,97272.59
2022-11-25T03:44:44.573Z,97268.31
2022-11-25T03:47:13.136Z,97271.78
2022-11-25T03:49:42.876Z,97262.31
2022-11-25T03:52:11.988Z,97268.31
2022-11-25T03:54:40.580Z,97273.69
2022-11-25T03:57:21.346Z,97271.88
2022-11-25T03:59:49.835Z,97263.16
2022-11-25T04:02:19.449Z,97268.31
2022-11-25T04:04:50.183Z,97270.22
2022-11-25T04:07:19.711Z,97258.03
2022-11-25T04:09:49.408Z,97263.28
2022-11-25T04:12:38.252Z,97272.13
2022-11-25T04:15:10.190Z,97262.44
2022-11-25T04:17:40.972Z,97269.50
2022-11-25T04:20:12.214Z,97261.38
2022-11-25T04:22:42.601Z,97268.53
2022-11-25T04:25:12.753Z,97269.38
2022-11-25T04:27:41.178Z,97269.50
2022-11-25T04:30:10.588Z,97267.94
2022-11-25T04:32:41.815Z,97273.81
2022-11-25T04:35:13.177Z,97278.22
2022-11-25T04:37:45.581Z,97271.28
2022-11-25T04:40:15.563Z,97275.72
2022-11-25T04:42:48.993Z,97264.25
2022-11-25T04:45:23.716Z,97265.06
2022-11-25T04:47:54.549Z,97260.78
2022-11-25T04:50:25.466Z,97268.53
2022-11-25T04:53:07.847Z,97259.94
2022-11-25T04:55:36.298Z,97260.91
2022-11-25T04:58:11.293Z,97263.53
2022-11-25T05:00:41.301Z,97260.91
2022-11-25T05:03:12.087Z,97245.47
2022-11-25T05:05:42.515Z,97257.44
2022-11-25T05:08:10.966Z,97264.47
2022-11-25T05:10:40.558Z,97265.44
2022-11-25T05:13:09.954Z,97263.75
2022-11-25T05:15:38.302Z,97261.00
2022-11-25T05:18:09.299Z,97265.44
2022-11-25T05:20:46.635Z,97252.53
2022-11-25T05:23:18.124Z,97267.13
2022-11-25T05:25:46.602Z,97257.66
2022-11-25T05:28:32.485Z,97260.31
2022-11-25T05:31:00.898Z,97254.09
2022-11-25T05:33:29.790Z,97260.19
2022-11-25T05:36:00.617Z,97262.81
2022-11-25T05:38:39.668Z,97266.28
2022-11-25T05:41:11.015Z,97258.88
2022-11-25T05:43:41.296Z,97271.91
2022-11-25T05:46:10.190Z,97268.44
2022-11-25T05:48:44.832Z,97266.63
2022-11-25T05:51:14.640Z,97269.38
2022-11-25T05:53:43.122Z,97255.28
2022-11-25T05:56:11.805Z,97248.22
2022-11-25T05:59:04.341Z,97244.88
2022-11-25T06:01:44.733Z,97255.41
2022-11-25T06:04:13.199Z,97264.97
2022-11-25T06:06:42.994Z,97272.84
2022-11-25T06:09:11.571Z,97264.25
2022-11-25T06:11:40.113Z,97259.09
2022-11-25T06:14:09.971Z,97276.56
2022-11-25T06:16:38.456Z,97275.72
2022-11-25T06:19:31.711Z,97289.00
2022-11-25T06:22:02.069Z,97294.13
2022-11-25T06:24:31.445Z,97291.50
2022-11-25T06:27:06.096Z,97290.66
2022-11-25T06:29:35.727Z,97299.50
2022-11-25T06:32:05.118Z,97283.84
2022-11-25T06:34:42.587Z,97296.03
2022-11-25T06:37:21.799Z,97303.22
2022-11-25T06:39:50.255Z,97305.72
2022-11-25T06:42:18.688Z,97311.94
2022-11-25T06:44:47.246Z,97315.41
2022-11-25T06:47:15.688Z,97308.47
2022-11-25T06:49:44.151Z,97309.53
2022-11-25T06:52:12.829Z,97313.72
2022-11-25T06:54:42.578Z,97307.63
2022-11-25T06:57:12.351Z,97310.25
2022-11-25T06:59:40.766Z,97314.81
2022-11-25T07:02:12.113Z,97313.97
2022-11-25T07:04:40.915Z,97317.31
2022-11-25T07:07:09.652Z,97327.00
2022-11-25T07:09:38.384Z,97333.09
2022-11-25T07:12:09.008Z,97329.75
2022-11-25T07:14:38.461Z,97332.25
2022-11-25T07:17:11.733Z,97321.72
2022-11-25T07:19:40.524Z,97311.34
2022-11-25T07:22:09.035Z,97318.25
2022-11-25T07:24:37.614Z,97315.28
2022-11-25T07:27:06.872Z,97321.72
2022-11-25T07:29:57.939Z,97324.47
2022-11-25T07:32:25.153Z,97315.75
2022-11-25T07:34:53.662Z,97324.47
2022-11-25T07:37:21.999Z,97324.47
2022-11-25T07:39:50.422Z,97321.84
2022-11-25T07:42:18.791Z,97330.69
2022-11-25T07:44:53.491Z,97321.84
2022-11-25T07:47:42.492Z,97328.06
2022-11-25T07:50:11.379Z,97332.38
2022-11-25T07:52:40.828Z,97334.16
2022-11-25T07:55:10.188Z,97335.00
2022-11-25T07:57:38.616Z,97332.38
2022-11-25T08:00:10.102Z,97331.75
2022-11-25T08:02:41.788Z,97330.81
2022-11-25T08:05:11.048Z,97331.75
2022-11-25T08:07:39.639Z,97332.47
2022-11-25T08:10:09.064Z,97325.78
2022-11-25T08:12:37.446Z,97326.63
2022-11-25T08:15:06.695Z,97336.91
2022-11-25T08:17:36.552Z,97346.69
2022-11-25T08:20:05.813Z,97352.69
2022-11-25T08:22:34.183Z,97354.59
2022-11-25T08:25:02.558Z,97363.19
2022-11-25T08:27:30.965Z,97372.88
2022-11-25T08:29:59.714Z,97377.28
2022-11-25T08:32:28.145Z,97376.47
2022-11-25T08:34:58.016Z,97373.00
2022-11-25T08:37:26.436Z,97385.06
2022-11-25T08:40:08.611Z,97376.69
2022-11-25T08:42:37.448Z,97391.38
2022-11-25T08:45:07.313Z,97393.78
2022-11-25T08:47:36.676Z,97392.00
2022-11-25T08:50:08.377Z,97391.16
2022-11-25T08:52:37.388Z,97392.22
2022-11-25T08:55:07.064Z,97400.00
2022-11-25T08:57:35.944Z,97399.28
2022-11-25T09:00:05.587Z,97400.00
2022-11-25T09:02:34.169Z,97403.59
2022-11-25T09:05:02.659Z,97401.78
2022-11-25T09:07:33.415Z,97403.47
2022-11-25T09:10:02.057Z,97393.78
2022-11-25T09:12:30.972Z,97388.41
2022-11-25T09:14:59.740Z,97400.72
2022-11-25T09:17:28.328Z,97399.75
2022-11-25T09:19:56.812Z,97397.13
2022-11-25T09:22:25.316Z,97399.75
2022-11-25T09:24:55.248Z,97398.09
2022-11-25T09:27:23.708Z,97400.59
2022-11-25T09:29:52.270Z,97400.59
2022-11-25T09:32:21.326Z,97396.19
2022-11-25T09:34:52.423Z,97400.50
2022-11-25T09:37:20.893Z,97404.91
2022-11-25T09:39:50.751Z,97396.91
2022-11-25T09:42:47.199Z,97406.47
2022-11-25T09:45:36.552Z,97404.78
2022-11-25T09:48:16.769Z,97408.16
2022-11-25T09:50:54.180Z,97404.56
2022-11-25T09:53:29.230Z,97402.88
2022-11-25T09:56:05.557Z,97412.22
2022-11-25T09:58:38.903Z,97406.94
2022-11-25T10:01:09.119Z,97402.53
2022-11-25T10:03:41.023Z,97398.13
2022-11-25T10:06:16.400Z,97400.75
2022-11-25T10:08:46.827Z,97401.59
2022-11-25T10:11:29.950Z,97404.09
2022-11-25T10:14:03.658Z,97397.16
2022-11-25T10:16:36.470Z,97398.13
2022-11-25T10:19:12.983Z,97391.91
2022-11-25T10:21:41.420Z,97392.72
2022-11-25T10:24:14.515Z,97396.44
2022-11-25T10:26:44.893Z,97383.16
2022-11-25T10:29:24.126Z,97371.81
2022-11-25T10:31:56.618Z,97372.66
2022-11-25T10:34:30.035Z,97383.06
2022-11-25T10:36:59.978Z,97377.78
2022-11-25T10:39:31.716Z,97375.88
2022-11-25T10:42:03.442Z,97382.81
2022-11-25T10:44:35.454Z,97384.59
2022-11-25T10:47:23.659Z,97381.16
2022-11-25T10:50:01.867Z,97375.75
2022-11-25T10:52:32.044Z,97379.22
2022-11-25T10:55:11.506Z,97378.03
2022-11-25T10:57:39.846Z,97362.97
2022-11-25T11:00:26.247Z,97373.25
2022-11-25T11:02:55.355Z,97360.13
2022-11-25T11:05:25.579Z,97368.13
2022-11-25T11:08:19.914Z,97367.06
2022-11-25T11:10:52.973Z,97370.50
2022-11-25T11:13:26.687Z,97369.69
2022-11-25T11:15:56.460Z,97351.63
2022-11-25T11:18:27.771Z,97359.28
2022-11-25T11:20:58.302Z,97350.53
2022-11-25T11:23:27.375Z,97346.97
2022-11-25T11:26:01.431Z,97352.22
2022-11-25T11:28:34.729Z,97356.06
2022-11-25T11:31:07.827Z,97370.16
2022-11-25T11:33:39.085Z,97360.84
2022-11-25T11:36:16.999Z,97352.47
2022-11-25T11:38:52.161Z,97363.47
2022-11-25T11:41:28.798Z,97359.91
2022-11-25T11:44:07.791Z,97362.00
2022-11-25T11:46:47.075Z,97357.22
2022-11-25T11:49:30.349Z,97351.81
2022-11-25T11:52:05.053Z,97358.63
2022-11-25T11:54:36.619Z,97354.22
2022-11-25T11:57:07.734Z,97362.22
2022-11-25T11:59:48.737Z,97356.25
2022-11-25T12:02:40.744Z,97366.06
2022-11-25T12:05:16.308Z,97367.72
2022-11-25T12:08:01.145Z,97356.00
2022-11-25T12:10:32.868Z,97355.28
2022-11-25T12:13:07.522Z,97366.75
2022-11-25T12:15:42.623Z,97370.22
2022-11-25T12:18:19.934Z,97361.50
2022-11-25T12:20:53.729Z,97365.09
2022-11-25T12:23:27.028Z,97367.84
2022-11-25T12:25:58.806Z,97369.06
2022-11-25T12:28:31.035Z,97368.34
2022-11-25T12:31:05.625Z,97373.72
2022-11-25T12:33:44.893Z,97362.47
2022-11-25T12:36:16.589Z,97370.38
2022-11-25T12:38:47.729Z,97361.75
2022-11-25T12:41:22.529Z,97367.97
2022-11-25T12:43:52.504Z,97368.09
2022-11-25T12:46:26.525Z,97371.81
2022-11-25T12:48:58.200Z,97376.13
2022-11-25T12:51:42.056Z,97382.34
2022-11-25T12:54:21.743Z,97367.66
2022-11-25T12:57:13.177Z,97373.63
2022-11-25T13:00:11.288Z,97369.47
2022-11-25T13:03:10.722Z,97371.13
2022-11-25T13:06:05.823Z,97371.13
2022-11-25T13:08:52.120Z,97366.81
2022-11-25T13:11:34.524Z,97366.81
2022-11-25T13:14:06.520Z,97372.94
2022-11-25T13:16:35.804Z,97381.78
2022-11-25T13:19:11.936Z,97386.22
2022-11-25T13:22:04.396Z,97387.88
2022-11-25T13:24:34.394Z,97396.72
2022-11-25T13:27:05.179Z,97392.44
2022-11-25T13:30:01.466Z,97397.81
2022-11-25T13:32:42.184Z,97397.81
2022-11-25T13:35:50.873Z,97398.66
2022-11-25T13:39:00.916Z,97403.91
2022-11-25T13:41:38.650Z,97404.75
2022-11-25T13:44:15.799Z,97405.59
2022-11-25T13:46:47.091Z,97398.66
2022-11-25T13:49:25.188Z,97397.69
2022-11-25T13:51:55.772Z,97402.84
2022-11-25T13:54:31.656Z,97408.22
2022-11-25T13:57:15.833Z,97407.50
2022-11-25T13:59:52.866Z,97410.97
2022-11-25T14:02:49.808Z,97404.88
2022-11-25T14:05:59.676Z,97401.53
2022-11-25T14:08:34.515Z,97405.00
2022-11-25T14:11:35.190Z,97410.25
2022-11-25T14:14:26.921Z,97406.66
2022-11-25T14:17:05.697Z,97410.38
2022-11-25T14:19:54.902Z,97414.56
2022-11-25T14:22:35.776Z,97430.34
2022-11-25T14:25:14.871Z,97426.03
2022-11-25T14:27:48.840Z,97428.69
2022-11-25T14:30:18.031Z,97428.69
2022-11-25T14:32:53.338Z,97437.53
2022-11-25T14:35:23.772Z,97439.19
2022-11-25T14:37:58.030Z,97451.53
2022-11-25T14:40:29.790Z,97447.22
2022-11-25T14:43:04.920Z,97447.22
2022-11-25T14:45:35.506Z,97459.28
2022-11-25T14:48:14.689Z,97452.47
2022-11-25T14:50:55.789Z,97455.94
2022-11-25T14:53:25.632Z,97457.75
2022-11-25T14:55:55.139Z,97465.75
2022-11-25T14:58:25.227Z,97467.44
2022-11-25T15:01:00.489Z,97470.06
2022-11-25T15:03:29.126Z,97471.97
2022-11-25T15:06:02.180Z,97478.06
2022-11-25T15:08:39.563Z,97477.22
2022-11-25T15:11:14.615Z,97490.41
2022-11-25T15:13:46.369Z,97480.81
2022-11-25T15:16:17.335Z,97497.56
2022-11-25T15:18:49.841Z,97488.84
2022-11-25T15:21:22.188Z,97490.50
2022-11-25T15:23:50.668Z,97497.69
2022-11-25T15:26:22.634Z,97500.31
2022-11-25T15:28:57.213Z,97505.56
2022-11-25T15:31:29.121Z,97510.97
2022-11-25T15:34:00.013Z,97513.47
2022-11-25T15:36:28.727Z,97515.16
2022-11-25T15:39:14.824Z,97516.09
2022-11-25T15:41:44.978Z,97523.28
2022-11-25T15:44:21.812Z,97520.13
2022-11-25T15:46:57.828Z,97522.44
2022-11-25T15:49:26.306Z,97530.44
2022-11-25T15:51:57.546Z,97533.78
2022-11-25T15:54:27.905Z,97529.50
2022-11-25T15:56:59.295Z,97548.63
2022-11-25T15:59:41.488Z,97540.63
2022-11-25T16:02:50.381Z,97545.03
2022-11-25T16:05:26.442Z,97544.22
2022-11-25T16:08:17.709Z,97556.41
2022-11-25T16:11:00.518Z,97554.72
2022-11-25T16:13:38.754Z,97564.41
2022-11-25T16:16:24.202Z,97564.31
2022-11-25T16:18:57.763Z,97569.69
2022-11-25T16:21:30.389Z,97569.69
2022-11-25T16:24:15.683Z,97573.25
2022-11-25T16:26:51.470Z,97573.25
2022-11-25T16:29:22.065Z,97573.25
2022-11-25T16:31:52.204Z,97571.47
2022-11-25T16:34:22.035Z,97562.75
2022-11-25T16:36:50.651Z,97553.91
2022-11-25T16:39:19.054Z,97580.22
2022-11-25T16:41:56.348Z,97574.94
2022-11-25T16:44:25.704Z,97574.94
2022-11-25T16:46:55.958Z,97579.38
2022-11-25T16:49:25.688Z,97586.41
2022-11-25T16:51:54.361Z,97598.84
2022-11-25T16:54:24.118Z,97582.34
2022-11-25T16:56:54.288Z,97592.75
2022-11-25T16:59:29.883Z,97604.31
2022-11-25T17:02:03.770Z,97609.56
2022-11-25T17:04:32.556Z,97606.22
2022-11-25T17:07:31.101Z,97617.69
2022-11-25T17:09:49.333Z,97618.66
2022-11-25T17:12:20.038Z,97621.06
2022-11-25T17:14:49.592Z,97629.16
2022-11-25T17:17:24.755Z,97627.38
2022-11-25T17:19:53.955Z,97621.41
2022-11-25T17:22:24.198Z,97624.88
2022-11-25T17:24:53.020Z,97638.84
2022-11-25T17:27:23.738Z,97638.00
2022-11-25T17:29:54.295Z,97643.50
2022-11-25T17:32:25.361Z,97639.91
2022-11-25T17:34:54.760Z,97639.81
2022-11-25T17:37:24.613Z,97639.81
2022-11-25T17:39:53.851Z,97644.22
2022-11-25T17:42:24.911Z,97648.75
2022-11-25T17:44:54.503Z,97650.34
2022-11-25T17:47:24.270Z,97651.16
2022-11-25T17:49:53.113Z,97647.59
2022-11-25T17:52:21.423Z,97657.03
2022-11-25T17:54:49.790Z,97651.78
2022-11-25T17:57:21.503Z,97664.09
2022-11-25T17:59:50.679Z,97660.50
2022-11-25T18:02:20.757Z,97683.59
2022-11-25T18:04:50.906Z,97686.09
2022-11-25T18:07:19.600Z,97683.47
2022-11-25T18:09:48.092Z,97686.09
2022-11-25T18:12:18.597Z,97692.44
2022-11-25T18:14:47.032Z,97691.59
2022-11-25T18:17:18.743Z,97694.94
2022-11-25T18:19:54.628Z,97698.53
2022-11-25T18:22:24.951Z,97702.84
2022-11-25T18:24:53.982Z,97705.47
2022-11-25T18:27:24.464Z,97704.75
2022-11-25T18:29:53.716Z,97705.59
2022-11-25T18:32:23.440Z,97705.69
2022-11-25T18:34:52.697Z,97703.06
2022-11-25T18:37:21.510Z,97713.47
2022-11-25T18:39:51.313Z,97716.94
2022-11-25T18:42:24.343Z,97725.06
2022-11-25T18:44:53.131Z,97717.16
2022-11-25T18:47:21.610Z,97734.53
2022-11-25T18:49:55.163Z,97732.00
2022-11-25T18:52:25.127Z,97741.69
2022-11-25T18:54:54.819Z,97737.25
2022-11-25T18:57:23.172Z,97741.56
2022-11-25T19:00:24.530Z,97743.47
2022-11-25T19:02:39.863Z,97746.94
2022-11-25T19:05:19.867Z,97754.72
2022-11-25T19:07:49.322Z,97748.63
2022-11-25T19:10:19.568Z,97759.25
2022-11-25T19:12:51.002Z,97758.53
2022-11-25T19:15:21.654Z,97758.53
2022-11-25T19:17:52.733Z,97761.88
2022-11-25T19:20:22.977Z,97772.53
2022-11-25T19:22:51.501Z,97787.47
2022-11-25T19:25:21.365Z,97780.53
2022-11-25T19:27:53.785Z,97800.50
2022-11-25T19:30:55.917Z,97791.78
2022-11-25T19:33:27.316Z,97796.09
2022-11-25T19:35:55.872Z,97805.88
2022-11-25T19:38:26.246Z,97805.88
2022-11-25T19:40:57.184Z,97804.09
2022-11-25T19:43:27.198Z,97814.63
2022-11-25T19:45:56.283Z,97823.34
2022-11-25T19:48:27.118Z,97824.28
2022-11-25T19:51:01.889Z,97836.59
2022-11-25T19:53:33.897Z,97840.09
2022-11-25T19:56:05.122Z,97847.03
2022-11-25T19:58:33.676Z,97843.66
2022-11-25T20:01:03.794Z,97843.66
2022-11-25T20:03:34.376Z,97853.44
2022-11-25T20:06:02.832Z,97856.91
2022-11-25T20:08:31.295Z,97864.81
2022-11-25T20:10:59.745Z,97863.13
2022-11-25T20:13:29.574Z,97874.50
2022-11-25T20:15:59.507Z,97878.91
2022-11-25T20:18:28.564Z,97890.16
2022-11-25T20:21:01.680Z,97891.34
2022-11-25T20:23:32.180Z,97895.53
2022-11-25T20:26:00.738Z,97896.59
2022-11-25T20:28:31.062Z,97898.38
2022-11-25T20:30:59.997Z,97914.91
2022-11-25T20:33:28.819Z,97913.31
2022-11-25T20:36:06.435Z,97917.84
2022-11-25T20:38:36.584Z,97929.09
2022-11-25T20:41:05.552Z,97924.69
2022-11-25T20:43:38.679Z,97927.31
2022-11-25T20:46:10.709Z,97931.63
2022-11-25T20:48:39.283Z,97933.53
2022-11-25T20:51:11.360Z,97930.91
2022-11-25T20:53:40.299Z,97937.00
2022-11-25T20:56:10.755Z,97946.69
2022-11-25T20:58:40.701Z,97943.09
2022-11-25T21:01:09.545Z,97947.53
2022-11-25T21:03:40.528Z,97954.56
2022-11-25T21:06:19.540Z,97952.78
2022-11-25T21:08:49.185Z,97957.19
2022-11-25T21:11:18.177Z,97955.50
2022-11-25T21:13:48.590Z,97955.63
2022-11-25T21:16:17.053Z,97956.34
2022-11-25T21:18:46.287Z,97963.31
2022-11-25T21:21:19.291Z,97967.72
2022-11-25T21:23:48.752Z,97969.63
2022-11-25T21:26:22.789Z,97976.56
2022-11-25T21:28:53.552Z,97979.19
2022-11-25T21:31:23.507Z,97985.28
2022-11-25T21:33:52.373Z,97981.81
2022-11-25T21:36:22.696Z,97978.44
2022-11-25T21:38:53.925Z,97984.34
2022-11-25T21:41:22.886Z,97991.50
2022-11-25T21:43:52.615Z,97996.13
2022-11-25T21:46:22.494Z,98002.88
2022-11-25T21:48:50.904Z,98002.03
2022-11-25T21:51:23.921Z,98000.13
2022-11-25T21:53:52.619Z,98002.88
2022-11-25T21:56:26.372Z,98009.06
2022-11-25T21:58:56.391Z,98019.50
2022-11-25T22:01:25.300Z,98012.53
2022-11-25T22:03:53.981Z,98016.13
2022-11-25T22:06:24.538Z,98014.34
2022-11-25T22:08:52.894Z,98021.38
2022-11-25T22:11:23.782Z,98022.22
2022-11-25T22:13:52.359Z,98021.38
2022-11-25T22:16:25.879Z,98027.47
2022-11-25T22:18:54.397Z,98026.63
2022-11-25T22:21:22.822Z,98025.78
2022-11-25T22:23:51.235Z,98017.81
2022-11-25T22:26:23.715Z,98033.69
2022-11-25T22:28:52.892Z,98034.63
2022-11-25T22:31:23.187Z,98040.63
2022-11-25T22:33:51.804Z,98036.31
2022-11-25T22:36:32.960Z,98032.84
2022-11-25T22:39:11.198Z,98041.59
2022-11-25T22:41:39.477Z,98042.63
2022-11-25T22:44:11.034Z,98040.00
2022-11-25T22:46:41.083Z,98048.84
2022-11-25T22:49:25.133Z,98052.19
2022-11-25T22:51:53.587Z,98044.31
2022-11-25T22:54:23.106Z,98056.63
2022-11-25T22:56:51.628Z,98054.94
2022-11-25T22:59:19.953Z,98063.56
2022-11-25T23:01:49.783Z,98052.31
2022-11-25T23:04:19.850Z,98061.13
2022-11-25T23:06:48.703Z,98063.78
2022-11-25T23:09:18.547Z,98066.31
2022-11-25T23:11:47.697Z,98080.28
2022-11-25T23:14:16.380Z,98082.94
2022-11-25T23:16:44.871Z,98080.28
2022-11-25T23:19:16.634Z,98074.19
2022-11-25T23:21:45.633Z,98074.19
2022-11-25T23:24:15.735Z,98071.47
2022-11-25T23:26:44.155Z,98071.56
2022-11-25T23:29:12.455Z,98077.66
2022-11-25T23:31:41.003Z,98087.44
2022-11-25T23:34:12.397Z,98085.66
2022-11-25T23:36:45.622Z,98084.81
2022-11-25T23:39:20.639Z,98089.13
2022-11-25T23:41:49.040Z,98084.72
2022-11-25T23:44:23.438Z,98089.13
2022-11-25T23:46:52.584Z,98086.50
2022-11-25T23:49:24.093Z,98097.03
2022-11-25T23:51:57.403Z,98097.03
2022-11-25T23:54:31.425Z,98097.97
2022-11-25T23:57:01.158Z,98096.09
2022-11-25T23:59:31.123Z,98098.81
